sensor_id;sensor_type;location;lat;lon;timestamp;pressure;altitude;pressure_sealevel;temperature;humidity
15272;BME280;7737;51.578;7.268;2023-05-20T00:00:44;101766.91;;;12.09;100.00
15272;BME280;7737;51.578;7.268;2023-05-20T00:03:10;101770.75;;;12.02;100.00
15272;BME280;7737;51.578;7.268;2023-05-20T00:05:37;101776.31;;;11.96;100.00
15272;BME280;7737;51.578;7.268;2023-05-20T00:08:04;101771.00;;;11.96;100.00
15272;BME280;7737;51.578;7.268;2023-05-20T00:10:33;101776.25;;;11.97;100.00
15272;BME280;7737;51.578;7.268;2023-05-20T00:13:01;101771.31;;;11.87;100.00
15272;BME280;7737;51.578;7.268;2023-05-20T00:15:28;101774.34;;;11.78;100.00
15272;BME280;7737;51.578;7.268;2023-05-20T00:17:55;101773.19;;;11.85;100.00
15272;BME280;7737;51.578;7.268;2023-05-20T00:20:21;101767.34;;;11.75;100.00
15272;BME280;7737;51.578;7.268;2023-05-20T00:22:48;101779.63;;;11.79;100.00
15272;BME280;7737;51.578;7.268;2023-05-20T00:25:15;101771.97;;;11.70;100.00
15272;BME280;7737;51.578;7.268;2023-05-20T00:27:41;101775.38;;;11.74;100.00
15272;BME280;7737;51.578;7.268;2023-05-20T00:30:10;101771.03;;;11.71;100.00
15272;BME280;7737;51.578;7.268;2023-05-20T00:32:37;101771.00;;;11.73;100.00
15272;BME280;7737;51.578;7.268;2023-05-20T00:35:04;101768.44;;;11.70;100.00
15272;BME280;7737;51.578;7.268;2023-05-20T00:37:31;101770.16;;;11.71;100.00
15272;BME280;7737;51.578;7.268;2023-05-20T00:39:57;101772.09;;;11.66;100.00
15272;BME280;7737;51.578;7.268;2023-05-20T00:42:25;101772.16;;;11.64;100.00
15272;BME280;7737;51.578;7.268;2023-05-20T00:44:52;101774.28;;;11.54;100.00
15272;BME280;7737;51.578;7.268;2023-05-20T00:47:24;101770.38;;;11.65;100.00
15272;BME280;7737;51.578;7.268;2023-05-20T00:49:51;101768.34;;;11.73;100.00
15272;BME280;7737;51.578;7.268;2023-05-20T00:52:18;101767.75;;;11.63;100.00
15272;BME280;7737;51.578;7.268;2023-05-20T00:54:46;101776.03;;;11.55;100.00
15272;BME280;7737;51.578;7.268;2023-05-20T00:57:12;101769.09;;;11.51;100.00
15272;BME280;7737;51.578;7.268;2023-05-20T00:59:39;101771.38;;;11.62;100.00
15272;BME280;7737;51.578;7.268;2023-05-20T01:02:06;101770.81;;;11.52;100.00
15272;BME280;7737;51.578;7.268;2023-05-20T01:04:34;101767.66;;;11.41;100.00
15272;BME280;7737;51.578;7.268;2023-05-20T01:07:03;101775.19;;;11.30;100.00
15272;BME280;7737;51.578;7.268;2023-05-20T01:09:30;101765.06;;;11.40;100.00
15272;BME280;7737;51.578;7.268;2023-05-20T01:12:00;101766.84;;;11.39;100.00
15272;BME280;7737;51.578;7.268;2023-05-20T01:14:31;101762.69;;;11.32;100.00
15272;BME280;7737;51.578;7.268;2023-05-20T01:17:01;101768.00;;;11.32;100.00
15272;BME280;7737;51.578;7.268;2023-05-20T01:19:40;101774.31;;;11.30;100.00
15272;BME280;7737;51.578;7.268;2023-05-20T01:22:08;101769.81;;;11.32;100.00
15272;BME280;7737;51.578;7.268;2023-05-20T01:24:38;101762.19;;;11.21;100.00
15272;BME280;7737;51.578;7.268;2023-05-20T01:27:05;101761.38;;;11.19;100.00
15272;BME280;7737;51.578;7.268;2023-05-20T01:29:35;101771.09;;;11.20;100.00
15272;BME280;7737;51.578;7.268;2023-05-20T01:32:04;101772.91;;;11.20;100.00
15272;BME280;7737;51.578;7.268;2023-05-20T01:34:32;101766.16;;;11.10;100.00
15272;BME280;7737;51.578;7.268;2023-05-20T01:37:01;101761.59;;;11.13;100.00
15272;BME280;7737;51.578;7.268;2023-05-20T01:39:30;101752.84;;;11.10;100.00
15272;BME280;7737;51.578;7.268;2023-05-20T01:41:59;101762.41;;;11.15;100.00
15272;BME280;7737;51.578;7.268;2023-05-20T01:44:27;101754.75;;;11.06;100.00
15272;BME280;7737;51.578;7.268;2023-05-20T01:46:53;101752.03;;;11.08;100.00
15272;BME280;7737;51.578;7.268;2023-05-20T01:49:20;101749.75;;;10.97;100.00
15272;BME280;7737;51.578;7.268;2023-05-20T01:51:46;101754.97;;;11.00;100.00
15272;BME280;7737;51.578;7.268;2023-05-20T01:54:13;101749.63;;;11.00;100.00
15272;BME280;7737;51.578;7.268;2023-05-20T01:56:40;101747.97;;;10.97;100.00
15272;BME280;7737;51.578;7.268;2023-05-20T01:59:07;101747.44;;;10.86;100.00
15272;BME280;7737;51.578;7.268;2023-05-20T02:01:34;101751.97;;;10.84;100.00
15272;BME280;7737;51.578;7.268;2023-05-20T02:04:01;101752.88;;;10.83;100.00
15272;BME280;7737;51.578;7.268;2023-05-20T02:06:27;101750.47;;;10.76;100.00
15272;BME280;7737;51.578;7.268;2023-05-20T02:08:54;101747.66;;;10.80;100.00
15272;BME280;7737;51.578;7.268;2023-05-20T02:11:21;101753.22;;;10.74;100.00
15272;BME280;7737;51.578;7.268;2023-05-20T02:13:48;101751.28;;;10.78;100.00
15272;BME280;7737;51.578;7.268;2023-05-20T02:16:17;101757.75;;;10.71;100.00
15272;BME280;7737;51.578;7.268;2023-05-20T02:18:43;101746.84;;;10.78;100.00
15272;BME280;7737;51.578;7.268;2023-05-20T02:21:10;101753.84;;;10.81;100.00
15272;BME280;7737;51.578;7.268;2023-05-20T02:23:36;101758.72;;;10.68;100.00
15272;BME280;7737;51.578;7.268;2023-05-20T02:26:04;101759.69;;;10.66;100.00
15272;BME280;7737;51.578;7.268;2023-05-20T02:28:31;101763.47;;;10.59;100.00
15272;BME280;7737;51.578;7.268;2023-05-20T02:30:57;101760.69;;;10.62;100.00
15272;BME280;7737;51.578;7.268;2023-05-20T02:33:25;101758.91;;;10.62;100.00
15272;BME280;7737;51.578;7.268;2023-05-20T02:35:53;101772.28;;;10.61;100.00
15272;BME280;7737;51.578;7.268;2023-05-20T02:38:19;101766.75;;;10.67;100.00
15272;BME280;7737;51.578;7.268;2023-05-20T02:40:46;101759.78;;;10.63;100.00
15272;BME280;7737;51.578;7.268;2023-05-20T02:43:12;101759.88;;;10.60;100.00
15272;BME280;7737;51.578;7.268;2023-05-20T02:45:39;101760.81;;;10.59;100.00
15272;BME280;7737;51.578;7.268;2023-05-20T02:48:05;101754.56;;;10.60;100.00
15272;BME280;7737;51.578;7.268;2023-05-20T02:50:37;101752.72;;;10.62;100.00
15272;BME280;7737;51.578;7.268;2023-05-20T02:53:03;101745.16;;;10.76;100.00
15272;BME280;7737;51.578;7.268;2023-05-20T02:55:33;101752.63;;;10.65;100.00
15272;BME280;7737;51.578;7.268;2023-05-20T02:57:59;101751.88;;;10.61;100.00
15272;BME280;7737;51.578;7.268;2023-05-20T03:00:26;101749.47;;;10.54;100.00
15272;BME280;7737;51.578;7.268;2023-05-20T03:02:54;101755.69;;;10.53;100.00
15272;BME280;7737;51.578;7.268;2023-05-20T03:05:21;101747.53;;;10.59;100.00
15272;BME280;7737;51.578;7.268;2023-05-20T03:07:49;101747.72;;;10.53;100.00
15272;BME280;7737;51.578;7.268;2023-05-20T03:10:15;101749.34;;;10.57;100.00
15272;BME280;7737;51.578;7.268;2023-05-20T03:12:42;101751.44;;;10.47;100.00
15272;BME280;7737;51.578;7.268;2023-05-20T03:15:09;101754.25;;;10.43;100.00
15272;BME280;7737;51.578;7.268;2023-05-20T03:17:36;101754.34;;;10.39;100.00
15272;BME280;7737;51.578;7.268;2023-05-20T03:20:03;101753.53;;;10.37;100.00
15272;BME280;7737;51.578;7.268;2023-05-20T03:22:32;101756.84;;;10.44;100.00
15272;BME280;7737;51.578;7.268;2023-05-20T03:25:00;101752.59;;;10.38;100.00
15272;BME280;7737;51.578;7.268;2023-05-20T03:27:26;101759.84;;;10.35;100.00
15272;BME280;7737;51.578;7.268;2023-05-20T03:29:53;101768.56;;;10.38;100.00
15272;BME280;7737;51.578;7.268;2023-05-20T03:32:19;101760.03;;;10.27;100.00
15272;BME280;7737;51.578;7.268;2023-05-20T03:34:46;101753.91;;;10.25;100.00
15272;BME280;7737;51.578;7.268;2023-05-20T03:37:12;101755.66;;;10.26;100.00
15272;BME280;7737;51.578;7.268;2023-05-20T03:39:39;101757.13;;;10.36;100.00
15272;BME280;7737;51.578;7.268;2023-05-20T03:42:07;101747.50;;;10.32;100.00
15272;BME280;7737;51.578;7.268;2023-05-20T03:44:33;101750.75;;;10.40;100.00
15272;BME280;7737;51.578;7.268;2023-05-20T03:47:00;101740.97;;;10.43;100.00
15272;BME280;7737;51.578;7.268;2023-05-20T03:49:26;101736.72;;;10.37;100.00
15272;BME280;7737;51.578;7.268;2023-05-20T03:51:53;101737.59;;;10.37;100.00
15272;BME280;7737;51.578;7.268;2023-05-20T03:54:19;101734.25;;;10.31;100.00
15272;BME280;7737;51.578;7.268;2023-05-20T03:56:46;101733.28;;;10.33;100.00
15272;BME280;7737;51.578;7.268;2023-05-20T03:59:14;101740.25;;;10.37;100.00
15272;BME280;7737;51.578;7.268;2023-05-20T04:01:42;101744.53;;;10.42;100.00
15272;BME280;7737;51.578;7.268;2023-05-20T04:04:08;101738.94;;;10.51;100.00
15272;BME280;7737;51.578;7.268;2023-05-20T04:06:35;101732.06;;;10.44;100.00
15272;BME280;7737;51.578;7.268;2023-05-20T04:09:01;101729.75;;;10.59;100.00
15272;BME280;7737;51.578;7.268;2023-05-20T04:11:28;101728.69;;;10.65;100.00
15272;BME280;7737;51.578;7.268;2023-05-20T04:13:54;101737.53;;;10.65;100.00
15272;BME280;7737;51.578;7.268;2023-05-20T04:16:24;101736.47;;;10.71;100.00
15272;BME280;7737;51.578;7.268;2023-05-20T04:18:50;101737.19;;;10.76;100.00
15272;BME280;7737;51.578;7.268;2023-05-20T04:21:17;101740.03;;;10.96;100.00
15272;BME280;7737;51.578;7.268;2023-05-20T04:23:44;101731.19;;;10.95;100.00
15272;BME280;7737;51.578;7.268;2023-05-20T04:26:10;101723.75;;;11.05;100.00
15272;BME280;7737;51.578;7.268;2023-05-20T04:28:37;101728.50;;;11.20;100.00
15272;BME280;7737;51.578;7.268;2023-05-20T04:31:06;101733.50;;;11.29;100.00
15272;BME280;7737;51.578;7.268;2023-05-20T04:33:35;101731.56;;;11.34;100.00
15272;BME280;7737;51.578;7.268;2023-05-20T04:36:03;101734.03;;;11.39;100.00
15272;BME280;7737;51.578;7.268;2023-05-20T04:38:29;101729.38;;;11.45;100.00
15272;BME280;7737;51.578;7.268;2023-05-20T04:40:56;101727.50;;;11.47;100.00
15272;BME280;7737;51.578;7.268;2023-05-20T04:43:23;101726.31;;;11.56;100.00
15272;BME280;7737;51.578;7.268;2023-05-20T04:45:50;101726.00;;;11.63;100.00
15272;BME280;7737;51.578;7.268;2023-05-20T04:48:18;101732.94;;;11.69;100.00
15272;BME280;7737;51.578;7.268;2023-05-20T04:50:46;101725.81;;;11.70;100.00
15272;BME280;7737;51.578;7.268;2023-05-20T04:53:13;101732.56;;;11.78;100.00
15272;BME280;7737;51.578;7.268;2023-05-20T04:55:40;101728.06;;;11.80;100.00
15272;BME280;7737;51.578;7.268;2023-05-20T04:58:07;101726.72;;;11.92;100.00
15272;BME280;7737;51.578;7.268;2023-05-20T05:00:39;101719.28;;;12.00;100.00
15272;BME280;7737;51.578;7.268;2023-05-20T05:03:05;101713.66;;;12.07;100.00
15272;BME280;7737;51.578;7.268;2023-05-20T05:05:33;101708.09;;;12.13;100.00
15272;BME280;7737;51.578;7.268;2023-05-20T05:08:01;101716.44;;;12.26;100.00
15272;BME280;7737;51.578;7.268;2023-05-20T05:10:28;101707.19;;;12.36;100.00
15272;BME280;7737;51.578;7.268;2023-05-20T05:12:54;101706.78;;;12.45;100.00
15272;BME280;7737;51.578;7.268;2023-05-20T05:15:21;101704.53;;;12.56;100.00
15272;BME280;7737;51.578;7.268;2023-05-20T05:17:48;101705.28;;;12.60;100.00
15272;BME280;7737;51.578;7.268;2023-05-20T05:20:15;101699.63;;;12.67;100.00
15272;BME280;7737;51.578;7.268;2023-05-20T05:22:41;101699.41;;;12.72;100.00
15272;BME280;7737;51.578;7.268;2023-05-20T05:25:11;101691.22;;;12.76;100.00
15272;BME280;7737;51.578;7.268;2023-05-20T05:27:38;101696.94;;;12.88;100.00
15272;BME280;7737;51.578;7.268;2023-05-20T05:30:06;101694.16;;;12.91;100.00
15272;BME280;7737;51.578;7.268;2023-05-20T05:32:33;101685.03;;;12.96;100.00
15272;BME280;7737;51.578;7.268;2023-05-20T05:34:59;101682.88;;;13.04;100.00
15272;BME280;7737;51.578;7.268;2023-05-20T05:37:26;101685.31;;;13.10;100.00
15272;BME280;7737;51.578;7.268;2023-05-20T05:39:53;101685.09;;;13.15;100.00
15272;BME280;7737;51.578;7.268;2023-05-20T05:42:20;101670.41;;;13.25;100.00
15272;BME280;7737;51.578;7.268;2023-05-20T05:44:47;101674.88;;;13.24;100.00
15272;BME280;7737;51.578;7.268;2023-05-20T05:47:14;101676.63;;;13.25;100.00
15272;BME280;7737;51.578;7.268;2023-05-20T05:49:40;101675.88;;;13.22;100.00
15272;BME280;7737;51.578;7.268;2023-05-20T05:52:07;101678.53;;;13.22;100.00
15272;BME280;7737;51.578;7.268;2023-05-20T05:54:34;101661.03;;;13.35;100.00
15272;BME280;7737;51.578;7.268;2023-05-20T05:57:00;101661.53;;;13.43;100.00
15272;BME280;7737;51.578;7.268;2023-05-20T05:59:28;101657.81;;;13.47;100.00
15272;BME280;7737;51.578;7.268;2023-05-20T06:01:54;101657.66;;;13.50;100.00
15272;BME280;7737;51.578;7.268;2023-05-20T06:04:21;101652.53;;;13.64;100.00
15272;BME280;7737;51.578;7.268;2023-05-20T06:06:48;101657.72;;;13.67;100.00
15272;BME280;7737;51.578;7.268;2023-05-20T06:09:14;101651.78;;;13.79;100.00
15272;BME280;7737;51.578;7.268;2023-05-20T06:11:41;101649.31;;;13.93;100.00
15272;BME280;7737;51.578;7.268;2023-05-20T06:14:08;101647.34;;;14.16;100.00
15272;BME280;7737;51.578;7.268;2023-05-20T06:16:36;101646.47;;;14.15;100.00
15272;BME280;7737;51.578;7.268;2023-05-20T06:19:03;101635.78;;;14.15;100.00
15272;BME280;7737;51.578;7.268;2023-05-20T06:21:30;101637.66;;;14.32;100.00
15272;BME280;7737;51.578;7.268;2023-05-20T06:23:57;101632.41;;;14.29;100.00
15272;BME280;7737;51.578;7.268;2023-05-20T06:26:23;101626.97;;;14.30;100.00
15272;BME280;7737;51.578;7.268;2023-05-20T06:28:50;101635.88;;;14.31;100.00
15272;BME280;7737;51.578;7.268;2023-05-20T06:31:17;101637.13;;;14.24;100.00
15272;BME280;7737;51.578;7.268;2023-05-20T06:33:45;101632.75;;;14.04;100.00
15272;BME280;7737;51.578;7.268;2023-05-20T06:36:11;101637.31;;;14.02;100.00
15272;BME280;7737;51.578;7.268;2023-05-20T06:38:38;101644.31;;;14.04;100.00
15272;BME280;7737;51.578;7.268;2023-05-20T06:41:05;101643.47;;;14.04;100.00
15272;BME280;7737;51.578;7.268;2023-05-20T06:43:31;101638.25;;;14.01;100.00
15272;BME280;7737;51.578;7.268;2023-05-20T06:45:58;101624.69;;;14.06;100.00
15272;BME280;7737;51.578;7.268;2023-05-20T06:48:24;101615.25;;;14.16;100.00
15272;BME280;7737;51.578;7.268;2023-05-20T06:50:52;101619.97;;;14.28;100.00
15272;BME280;7737;51.578;7.268;2023-05-20T06:53:19;101620.47;;;14.36;100.00
15272;BME280;7737;51.578;7.268;2023-05-20T06:55:45;101607.88;;;14.38;100.00
15272;BME280;7737;51.578;7.268;2023-05-20T06:58:12;101622.72;;;14.45;100.00
15272;BME280;7737;51.578;7.268;2023-05-20T07:00:38;101621.25;;;14.38;100.00
15272;BME280;7737;51.578;7.268;2023-05-20T07:03:05;101626.69;;;14.53;100.00
15272;BME280;7737;51.578;7.268;2023-05-20T07:05:32;101617.50;;;14.42;100.00
15272;BME280;7737;51.578;7.268;2023-05-20T07:08:00;101614.19;;;14.54;100.00
15272;BME280;7737;51.578;7.268;2023-05-20T07:10:26;101603.81;;;14.48;100.00
15272;BME280;7737;51.578;7.268;2023-05-20T07:12:53;101613.56;;;14.49;100.00
15272;BME280;7737;51.578;7.268;2023-05-20T07:15:19;101615.31;;;14.50;100.00
15272;BME280;7737;51.578;7.268;2023-05-20T07:17:46;101611.50;;;14.54;100.00
15272;BME280;7737;51.578;7.268;2023-05-20T07:20:12;101617.75;;;14.54;100.00
15272;BME280;7737;51.578;7.268;2023-05-20T07:22:39;101612.88;;;14.45;100.00
15272;BME280;7737;51.578;7.268;2023-05-20T07:25:07;101605.38;;;14.52;100.00
15272;BME280;7737;51.578;7.268;2023-05-20T07:27:34;101611.03;;;14.46;100.00
15272;BME280;7737;51.578;7.268;2023-05-20T07:30:00;101607.34;;;14.48;100.00
15272;BME280;7737;51.578;7.268;2023-05-20T07:32:27;101608.06;;;14.52;100.00
15272;BME280;7737;51.578;7.268;2023-05-20T07:34:53;101613.41;;;14.52;100.00
15272;BME280;7737;51.578;7.268;2023-05-20T07:37:21;101619.31;;;14.58;100.00
15272;BME280;7737;51.578;7.268;2023-05-20T07:39:47;101609.81;;;14.53;100.00
15272;BME280;7737;51.578;7.268;2023-05-20T07:42:15;101592.88;;;14.52;100.00
15272;BME280;7737;51.578;7.268;2023-05-20T07:44:41;101603.75;;;14.67;100.00
15272;BME280;7737;51.578;7.268;2023-05-20T07:47:09;101595.78;;;14.65;100.00
15272;BME280;7737;51.578;7.268;2023-05-20T07:49:35;101602.66;;;14.86;100.00
15272;BME280;7737;51.578;7.268;2023-05-20T07:52:02;101600.44;;;14.94;100.00
15272;BME280;7737;51.578;7.268;2023-05-20T07:54:28;101600.31;;;14.80;100.00
15272;BME280;7737;51.578;7.268;2023-05-20T07:56:55;101598.13;;;14.71;100.00
15272;BME280;7737;51.578;7.268;2023-05-20T07:59:23;101616.19;;;15.00;100.00
15272;BME280;7737;51.578;7.268;2023-05-20T08:01:49;101607.03;;;15.04;100.00
15272;BME280;7737;51.578;7.268;2023-05-20T08:04:16;101597.00;;;14.92;100.00
15272;BME280;7737;51.578;7.268;2023-05-20T08:06:42;101603.59;;;15.02;100.00
15272;BME280;7737;51.578;7.268;2023-05-20T08:09:09;101599.75;;;14.91;100.00
15272;BME280;7737;51.578;7.268;2023-05-20T08:11:36;101592.44;;;15.10;100.00
15272;BME280;7737;51.578;7.268;2023-05-20T08:14:02;101588.31;;;15.20;100.00
15272;BME280;7737;51.578;7.268;2023-05-20T08:16:30;101589.44;;;15.49;100.00
15272;BME280;7737;51.578;7.268;2023-05-20T08:18:57;101587.66;;;15.16;100.00
15272;BME280;7737;51.578;7.268;2023-05-20T08:21:24;101580.44;;;15.17;100.00
15272;BME280;7737;51.578;7.268;2023-05-20T08:23:50;101591.53;;;15.27;100.00
15272;BME280;7737;51.578;7.268;2023-05-20T08:26:17;101585.97;;;15.62;100.00
15272;BME280;7737;51.578;7.268;2023-05-20T08:28:44;101575.06;;;15.50;100.00
15272;BME280;7737;51.578;7.268;2023-05-20T08:31:10;101576.81;;;15.66;100.00
15272;BME280;7737;51.578;7.268;2023-05-20T08:33:39;101585.09;;;15.93;100.00
15272;BME280;7737;51.578;7.268;2023-05-20T08:36:06;101579.50;;;15.51;100.00
15272;BME280;7737;51.578;7.268;2023-05-20T08:38:32;101576.88;;;15.49;100.00
15272;BME280;7737;51.578;7.268;2023-05-20T08:40:59;101572.38;;;15.65;100.00
15272;BME280;7737;51.578;7.268;2023-05-20T08:43:26;101571.31;;;15.99;100.00
15272;BME280;7737;51.578;7.268;2023-05-20T08:45:52;101568.72;;;15.98;100.00
15272;BME280;7737;51.578;7.268;2023-05-20T08:48:21;101560.19;;;15.91;100.00
15272;BME280;7737;51.578;7.268;2023-05-20T08:50:51;101562.38;;;16.44;100.00
15272;BME280;7737;51.578;7.268;2023-05-20T08:53:17;101541.56;;;16.04;100.00
15272;BME280;7737;51.578;7.268;2023-05-20T08:55:46;101562.72;;;16.08;100.00
15272;BME280;7737;51.578;7.268;2023-05-20T08:58:14;101562.56;;;16.41;100.00
15272;BME280;7737;51.578;7.268;2023-05-20T09:00:42;101558.13;;;16.10;100.00
15272;BME280;7737;51.578;7.268;2023-05-20T09:03:08;101564.09;;;15.86;100.00
15272;BME280;7737;51.578;7.268;2023-05-20T09:05:35;101564.09;;;15.86;100.00
15272;BME280;7737;51.578;7.268;2023-05-20T09:08:08;101567.97;;;15.96;100.00
15272;BME280;7737;51.578;7.268;2023-05-20T09:10:35;101573.25;;;15.81;100.00
15272;BME280;7737;51.578;7.268;2023-05-20T09:13:03;101563.38;;;15.82;100.00
15272;BME280;7737;51.578;7.268;2023-05-20T09:15:30;101563.91;;;16.18;100.00
15272;BME280;7737;51.578;7.268;2023-05-20T09:17:59;101569.38;;;16.17;100.00
15272;BME280;7737;51.578;7.268;2023-05-20T09:20:26;101576.66;;;15.99;100.00
15272;BME280;7737;51.578;7.268;2023-05-20T09:22:58;101566.75;;;16.01;100.00
15272;BME280;7737;51.578;7.268;2023-05-20T09:25:26;101570.94;;;16.05;100.00
15272;BME280;7737;51.578;7.268;2023-05-20T09:27:53;101569.78;;;15.79;100.00
15272;BME280;7737;51.578;7.268;2023-05-20T09:30:20;101567.44;;;15.89;100.00
15272;BME280;7737;51.578;7.268;2023-05-20T09:32:51;101567.50;;;16.03;100.00
15272;BME280;7737;51.578;7.268;2023-05-20T09:35:18;101574.78;;;16.01;100.00
15272;BME280;7737;51.578;7.268;2023-05-20T09:37:45;101566.06;;;16.27;100.00
15272;BME280;7737;51.578;7.268;2023-05-20T09:40:14;101561.63;;;16.12;100.00
15272;BME280;7737;51.578;7.268;2023-05-20T09:42:48;101568.75;;;16.41;100.00
15272;BME280;7737;51.578;7.268;2023-05-20T09:45:15;101568.78;;;16.12;100.00
15272;BME280;7737;51.578;7.268;2023-05-20T09:47:43;101571.91;;;16.34;100.00
15272;BME280;7737;51.578;7.268;2023-05-20T09:50:11;101564.81;;;16.03;100.00
15272;BME280;7737;51.578;7.268;2023-05-20T09:52:39;101571.69;;;16.53;100.00
15272;BME280;7737;51.578;7.268;2023-05-20T09:55:08;101557.97;;;16.13;100.00
15272;BME280;7737;51.578;7.268;2023-05-20T09:57:36;101556.00;;;16.61;100.00
15272;BME280;7737;51.578;7.268;2023-05-20T10:00:06;101549.63;;;16.48;100.00
15272;BME280;7737;51.578;7.268;2023-05-20T10:02:34;101551.09;;;16.53;100.00
15272;BME280;7737;51.578;7.268;2023-05-20T10:05:05;101551.59;;;16.30;100.00
15272;BME280;7737;51.578;7.268;2023-05-20T10:10:35;101543.13;;;16.52;100.00
15272;BME280;7737;51.578;7.268;2023-05-20T10:13:10;101536.78;;;16.38;100.00
15272;BME280;7737;51.578;7.268;2023-05-20T10:15:48;101537.19;;;16.61;100.00
15272;BME280;7737;51.578;7.268;2023-05-20T10:18:28;101535.88;;;16.82;100.00
15272;BME280;7737;51.578;7.268;2023-05-20T10:20:57;101531.94;;;17.01;100.00
15272;BME280;7737;51.578;7.268;2023-05-20T10:23:27;101523.50;;;17.08;100.00
15272;BME280;7737;51.578;7.268;2023-05-20T10:25:55;101516.50;;;16.77;100.00
15272;BME280;7737;51.578;7.268;2023-05-20T10:28:29;101506.72;;;16.90;100.00
15272;BME280;7737;51.578;7.268;2023-05-20T10:30:58;101506.09;;;17.27;100.00
15272;BME280;7737;51.578;7.268;2023-05-20T10:33:25;101499.44;;;17.33;100.00
15272;BME280;7737;51.578;7.268;2023-05-20T10:35:53;101504.16;;;17.29;100.00
15272;BME280;7737;51.578;7.268;2023-05-20T10:38:19;101505.84;;;17.58;100.00
15272;BME280;7737;51.578;7.268;2023-05-20T10:40:46;101500.81;;;17.67;100.00
15272;BME280;7737;51.578;7.268;2023-05-20T10:43:14;101484.13;;;17.21;100.00
15272;BME280;7737;51.578;7.268;2023-05-20T10:45:48;101478.16;;;17.30;100.00
15272;BME280;7737;51.578;7.268;2023-05-20T10:48:27;101472.19;;;17.39;100.00
15272;BME280;7737;51.578;7.268;2023-05-20T10:50:55;101469.75;;;17.48;100.00
15272;BME280;7737;51.578;7.268;2023-05-20T10:53:23;101478.06;;;17.58;100.00
15272;BME280;7737;51.578;7.268;2023-05-20T10:55:51;101466.31;;;17.73;100.00
15272;BME280;7737;51.578;7.268;2023-05-20T10:58:20;101459.97;;;18.51;100.00
15272;BME280;7737;51.578;7.268;2023-05-20T11:00:48;101445.16;;;17.94;100.00
15272;BME280;7737;51.578;7.268;2023-05-20T11:03:15;101446.59;;;18.12;100.00
15272;BME280;7737;51.578;7.268;2023-05-20T11:05:45;101430.13;;;18.29;100.00
15272;BME280;7737;51.578;7.268;2023-05-20T11:08:12;101427.94;;;17.84;100.00
15272;BME280;7737;51.578;7.268;2023-05-20T11:10:40;101428.28;;;18.42;100.00
15272;BME280;7737;51.578;7.268;2023-05-20T11:13:07;101425.06;;;18.37;100.00
15272;BME280;7737;51.578;7.268;2023-05-20T11:15:34;101415.13;;;18.75;100.00
15272;BME280;7737;51.578;7.268;2023-05-20T11:18:02;101406.78;;;18.55;100.00
15272;BME280;7737;51.578;7.268;2023-05-20T11:20:29;101414.28;;;18.62;100.00
15272;BME280;7737;51.578;7.268;2023-05-20T11:23:01;101392.63;;;18.39;100.00
15272;BME280;7737;51.578;7.268;2023-05-20T11:25:28;101394.16;;;18.30;100.00
15272;BME280;7737;51.578;7.268;2023-05-20T11:27:54;101399.66;;;18.66;100.00
15272;BME280;7737;51.578;7.268;2023-05-20T11:30:22;101403.78;;;18.83;100.00
15272;BME280;7737;51.578;7.268;2023-05-20T11:32:56;101395.72;;;18.83;100.00
15272;BME280;7737;51.578;7.268;2023-05-20T11:35:23;101389.00;;;18.89;100.00
15272;BME280;7737;51.578;7.268;2023-05-20T11:37:54;101385.63;;;18.61;100.00
15272;BME280;7737;51.578;7.268;2023-05-20T11:40:27;101394.78;;;18.71;100.00
15272;BME280;7737;51.578;7.268;2023-05-20T11:42:54;101391.63;;;18.90;100.00
15272;BME280;7737;51.578;7.268;2023-05-20T11:45:21;101388.41;;;19.09;100.00
15272;BME280;7737;51.578;7.268;2023-05-20T11:47:59;101375.63;;;19.00;100.00
15272;BME280;7737;51.578;7.268;2023-05-20T11:50:25;101363.75;;;19.02;100.00
15272;BME280;7737;51.578;7.268;2023-05-20T11:53:02;101373.59;;;19.14;100.00
15272;BME280;7737;51.578;7.268;2023-05-20T11:55:30;101354.97;;;19.35;100.00
15272;BME280;7737;51.578;7.268;2023-05-20T11:57:57;101345.47;;;19.42;100.00
15272;BME280;7737;51.578;7.268;2023-05-20T12:00:23;101352.88;;;18.91;100.00
15272;BME280;7737;51.578;7.268;2023-05-20T12:02:50;101343.03;;;19.50;100.00
15272;BME280;7737;51.578;7.268;2023-05-20T12:05:17;101326.16;;;19.70;100.00
15272;BME280;7737;51.578;7.268;2023-05-20T12:07:43;101320.81;;;20.03;100.00
15272;BME280;7737;51.578;7.268;2023-05-20T12:10:10;101312.09;;;20.00;100.00
15272;BME280;7737;51.578;7.268;2023-05-20T12:12:39;101310.50;;;19.97;100.00
15272;BME280;7737;51.578;7.268;2023-05-20T12:15:06;101309.97;;;19.70;100.00
15272;BME280;7737;51.578;7.268;2023-05-20T12:17:46;101322.28;;;19.85;100.00
15272;BME280;7737;51.578;7.268;2023-05-20T12:20:14;101312.97;;;20.56;100.00
15272;BME280;7737;51.578;7.268;2023-05-20T12:22:42;101282.31;;;20.89;100.00
15272;BME280;7737;51.578;7.268;2023-05-20T12:25:10;101284.69;;;20.71;100.00
15272;BME280;7737;51.578;7.268;2023-05-20T12:27:39;101289.44;;;20.25;100.00
15272;BME280;7737;51.578;7.268;2023-05-20T12:30:06;101301.22;;;20.46;100.00
15272;BME280;7737;51.578;7.268;2023-05-20T12:32:34;101290.22;;;19.70;100.00
15272;BME280;7737;51.578;7.268;2023-05-20T12:35:00;101297.50;;;19.91;100.00
15272;BME280;7737;51.578;7.268;2023-05-20T12:37:27;101288.03;;;19.64;100.00
15272;BME280;7737;51.578;7.268;2023-05-20T12:39:54;101297.22;;;19.83;100.00
15272;BME280;7737;51.578;7.268;2023-05-20T12:42:20;101287.44;;;19.82;100.00
15272;BME280;7737;51.578;7.268;2023-05-20T12:44:48;101290.72;;;19.64;100.00
15272;BME280;7737;51.578;7.268;2023-05-20T12:47:15;101308.13;;;19.71;100.00
15272;BME280;7737;51.578;7.268;2023-05-20T12:49:41;101319.09;;;20.02;100.00
15272;BME280;7737;51.578;7.268;2023-05-20T12:52:08;101306.16;;;19.51;100.00
15272;BME280;7737;51.578;7.268;2023-05-20T12:54:34;101298.22;;;19.36;100.00